Time;durP1;ratioP1;P1;durP2;ratioP2;P2;SDS_P1;SDS_P2;PMS_P1;PMS_P2;Temp;Humidity;BMP_temperature;BMP_pressure;BME280_temperature;BME280_humidity;BME280_pressure;Samples;Min_cycle;Max_cycle;Signal;HPM_P1;HPM_P2
2023/04/21 00:01:11;;;;;;;17.90;16.00;;;;;;;9.90;75.34;92392.38;5112518;28;20227;-77
2023/04/21 00:03:38;;;;;;;14.27;13.00;;;;;;;10.17;74.76;92440.31;5112210;28;20288;-77
2023/04/21 00:06:08;;;;;;;15.87;14.20;;;;;;;10.15;74.16;92408.50;5111145;28;20262;-77
2023/04/21 00:08:39;;;;;;;13.20;12.30;;;;;;;10.30;73.62;92424.00;5112105;28;20232;-76
2023/04/21 00:11:05;;;;;;;17.47;14.43;;;;;;;10.33;72.39;92409.59;5110604;28;20236;-76
2023/04/21 00:13:32;;;;;;;14.17;12.87;;;;;;;10.46;72.51;92425.31;5112839;28;20189;-76
2023/04/21 00:15:58;;;;;;;15.70;14.13;;;;;;;10.09;72.94;92373.13;5111097;28;20228;-76
2023/04/21 00:18:24;;;;;;;18.13;14.27;;;;;;;10.37;73.03;92419.19;5112109;28;20210;-77
2023/04/21 00:20:49;;;;;;;19.77;14.43;;;;;;;10.28;72.87;92397.41;5112310;28;20229;-75
2023/04/21 00:23:15;;;;;;;16.83;14.30;;;;;;;10.47;72.95;92419.06;5111586;28;20253;-77
2023/04/21 00:25:40;;;;;;;17.87;15.97;;;;;;;10.27;72.36;92385.41;5112018;28;20231;-76
2023/04/21 00:28:05;;;;;;;14.63;13.27;;;;;;;10.31;71.81;92394.22;5112212;28;20271;-76
2023/04/21 00:30:31;;;;;;;14.37;13.10;;;;;;;10.49;71.26;92416.94;5111259;28;20246;-76
2023/04/21 00:32:56;;;;;;;15.37;13.57;;;;;;;10.26;70.95;92389.06;5111897;28;20216;-77
2023/04/21 00:35:22;;;;;;;12.87;11.77;;;;;;;10.42;71.00;92421.72;5109889;28;20236;-75
2023/04/21 00:37:49;;;;;;;12.27;11.47;;;;;;;10.32;71.37;92419.25;5111911;28;20191;-76
2023/04/21 00:40:14;;;;;;;13.07;11.77;;;;;;;10.11;71.84;92396.31;5111198;28;20259;-77
2023/04/21 00:42:40;;;;;;;12.93;11.63;;;;;;;10.20;72.09;92421.50;5111842;28;20200;-76
2023/04/21 00:45:05;;;;;;;12.90;11.80;;;;;;;10.12;72.75;92426.53;5111577;28;20267;-77
2023/04/21 00:47:31;;;;;;;12.83;11.83;;;;;;;10.01;72.57;92418.03;5112142;28;20306;-76
2023/04/21 00:49:57;;;;;;;12.03;11.13;;;;;;;9.89;72.06;92393.41;5109414;28;20224;-77
2023/04/21 00:52:23;;;;;;;13.40;12.30;;;;;;;10.09;71.89;92425.28;5111975;28;20187;-76
2023/04/21 00:54:49;;;;;;;12.30;11.40;;;;;;;10.19;71.44;92421.78;5110473;28;20231;-76
2023/04/21 00:57:15;;;;;;;11.77;10.83;;;;;;;10.15;71.00;92426.78;5111853;28;20164;-76
2023/04/21 00:59:40;;;;;;;11.93;10.80;;;;;;;10.06;71.42;92420.59;5110586;28;20188;-76
2023/04/21 01:02:06;;;;;;;11.90;11.10;;;;;;;9.98;71.62;92397.75;5111644;28;20226;-77
2023/04/21 01:04:35;;;;;;;12.60;11.60;;;;;;;9.91;71.73;92392.09;5110268;28;20202;-76
2023/04/21 01:07:02;;;;;;;12.00;11.10;;;;;;;9.84;72.76;92386.44;5110898;28;20768;-77
2023/04/21 01:09:28;;;;;;;13.73;12.73;;;;;;;10.08;72.38;92417.75;5110219;28;20198;-77
2023/04/21 01:12:12;;;;;;;12.87;11.97;;;;;;;10.08;72.49;92434.16;5112204;28;20192;-77
2023/04/21 01:14:39;;;;;;;12.73;11.83;;;;;;;10.01;72.74;92423.25;5111424;28;20176;-77
2023/04/21 01:17:06;;;;;;;12.47;11.50;;;;;;;9.85;72.53;92414.09;5113246;28;20192;-77
2023/04/21 01:19:40;;;;;;;12.90;12.03;;;;;;;9.86;72.67;92409.63;5109491;28;20210;-77
2023/04/21 01:22:10;;;;;;;12.67;11.77;;;;;;;9.88;72.82;92418.75;5109513;28;20310;-77
2023/04/21 01:24:41;;;;;;;12.83;11.83;;;;;;;9.91;73.28;92425.22;5109723;28;20187;-77
2023/04/21 01:27:15;;;;;;;12.03;11.20;;;;;;;9.71;73.80;92397.56;5111199;28;20176;-77
2023/04/21 01:29:42;;;;;;;13.93;12.97;;;;;;;9.86;74.10;92420.06;5109224;28;20172;-77
2023/04/21 01:32:15;;;;;;;12.13;11.23;;;;;;;9.77;75.48;92419.91;5108934;28;20207;-76
2023/04/21 01:34:41;;;;;;;12.93;12.03;;;;;;;9.66;74.95;92416.59;5107396;28;20213;-77
2023/04/21 01:37:11;;;;;;;12.40;11.53;;;;;;;9.71;75.28;92421.00;5090427;28;20192;-76
2023/04/21 01:39:39;;;;;;;14.03;12.93;;;;;;;9.74;74.98;92402.22;5092616;28;20197;-77
2023/04/21 01:42:04;;;;;;;14.07;12.87;;;;;;;9.57;75.17;92394.06;5109155;28;20179;-73
2023/04/21 01:44:30;;;;;;;13.37;12.07;;;;;;;9.68;75.88;92413.75;5109817;28;20188;-72
2023/04/21 01:46:55;;;;;;;12.83;11.63;;;;;;;9.56;75.97;92397.69;5109378;28;20207;-73
2023/04/21 01:49:21;;;;;;;12.77;11.80;;;;;;;9.49;75.74;92392.06;5109550;28;20212;-73
2023/04/21 01:51:46;;;;;;;13.33;12.43;;;;;;;9.41;75.99;92393.44;5108903;28;20222;-72
2023/04/21 01:54:11;;;;;;;13.77;12.67;;;;;;;9.57;75.70;92404.50;5109571;28;20191;-73
2023/04/21 01:56:37;;;;;;;13.47;12.53;;;;;;;9.55;74.98;92403.97;5108860;28;20223;-72
2023/04/21 01:59:02;;;;;;;12.37;11.43;;;;;;;9.54;75.66;92403.19;5108679;28;20228;-72
2023/04/21 02:01:28;;;;;;;12.63;11.57;;;;;;;9.58;75.57;92403.41;5108557;28;20231;-72
2023/04/21 02:03:53;;;;;;;12.43;11.53;;;;;;;9.48;76.41;92408.72;5109514;28;20195;-73
2023/04/21 02:06:19;;;;;;;13.67;12.13;;;;;;;9.59;76.01;92404.97;5109745;27;20834;-73
2023/04/21 02:08:44;;;;;;;13.47;12.37;;;;;;;9.40;75.54;92381.44;5108824;28;20192;-73
2023/04/21 02:11:09;;;;;;;12.57;11.70;;;;;;;9.42;76.45;92397.59;5108096;28;20254;-73
2023/04/21 02:13:35;;;;;;;13.13;11.77;;;;;;;9.52;75.78;92404.53;5110453;28;20181;-73
2023/04/21 02:16:00;;;;;;;12.60;11.70;;;;;;;9.54;76.13;92407.66;5108446;28;20231;-73
2023/04/21 02:18:28;;;;;;;13.43;12.17;;;;;;;9.53;75.59;92400.88;5109257;28;20188;-72
2023/04/21 02:20:54;;;;;;;13.50;12.50;;;;;;;9.52;76.03;92399.31;5108790;28;20220;-72
2023/04/21 02:23:20;;;;;;;12.27;11.17;;;;;;;9.55;76.06;92403.97;5108876;28;20271;-73
2023/04/21 02:25:45;;;;;;;14.40;13.17;;;;;;;9.42;75.63;92392.38;5107731;28;20249;-73
2023/04/21 02:28:10;;;;;;;13.57;12.43;;;;;;;9.45;75.67;92388.44;5109453;28;20184;-73
2023/04/21 02:30:36;;;;;;;13.00;12.00;;;;;;;9.51;76.16;92389.94;5108598;27;20913;-73
2023/04/21 02:33:01;;;;;;;13.93;12.70;;;;;;;9.46;76.89;92405.63;5109164;28;20246;-74
2023/04/21 02:35:27;;;;;;;12.67;11.73;;;;;;;9.48;77.99;92399.09;5109430;28;20242;-73
2023/04/21 02:37:52;;;;;;;13.97;12.77;;;;;;;9.52;78.75;92394.09;5109358;28;20184;-73
2023/04/21 02:40:17;;;;;;;12.30;11.30;;;;;;;9.53;78.90;92399.03;5108580;28;20331;-73
2023/04/21 02:42:43;;;;;;;14.30;12.80;;;;;;;9.31;78.57;92369.31;5109022;28;20180;-71
2023/04/21 02:45:09;;;;;;;14.53;13.47;;;;;;;9.52;78.61;92400.09;5109106;28;20254;-74
2023/04/21 02:47:34;;;;;;;15.20;13.93;;;;;;;9.48;78.88;92393.09;5108569;28;20191;-74
2023/04/21 02:50:00;;;;;;;13.87;12.70;;;;;;;9.57;78.71;92401.88;5108951;28;20230;-73
2023/04/21 02:52:26;;;;;;;14.10;12.90;;;;;;;9.51;79.05;92390.72;5108559;28;20222;-72
2023/04/21 02:54:52;;;;;;;12.83;11.77;;;;;;;9.62;79.96;92399.97;5109405;28;20229;-73
2023/04/21 02:57:17;;;;;;;15.10;14.00;;;;;;;9.66;79.06;92392.38;5109258;28;20180;-72
2023/04/21 02:59:43;;;;;;;15.07;13.60;;;;;;;9.70;78.81;92401.97;5108980;28;20232;-73
2023/04/21 03:02:08;;;;;;;14.80;13.60;;;;;;;9.80;78.59;92393.28;5108542;28;20204;-71
2023/04/21 03:04:33;;;;;;;14.93;13.73;;;;;;;9.76;78.97;92395.66;5108657;28;20187;-73
2023/04/21 03:06:59;;;;;;;15.70;14.40;;;;;;;9.76;79.18;92400.09;5110618;28;20220;-72
2023/04/21 03:09:24;;;;;;;15.00;13.70;;;;;;;9.85;77.97;92398.44;5112650;28;20176;-72
2023/04/21 03:11:50;;;;;;;15.47;14.03;;;;;;;9.86;77.51;92396.59;5113625;28;20188;-72
2023/04/21 03:14:15;;;;;;;14.80;13.63;;;;;;;9.86;77.72;92402.59;5113460;28;20211;-72
2023/04/21 03:16:41;;;;;;;14.53;13.43;;;;;;;9.88;77.79;92397.88;5112243;28;20263;-73
2023/04/21 03:19:06;;;;;;;14.83;12.93;;;;;;;9.82;77.41;92393.00;5112389;28;20180;-73
2023/04/21 03:21:31;;;;;;;14.53;13.33;;;;;;;9.87;77.81;92396.31;5111685;28;20224;-71
2023/04/21 03:23:57;;;;;;;14.13;13.00;;;;;;;9.92;78.43;92398.06;5111287;28;20199;-73
2023/04/21 03:26:22;;;;;;;14.73;13.53;;;;;;;9.92;77.35;92404.06;5111775;28;20223;-72
2023/04/21 03:28:48;;;;;;;13.13;12.13;;;;;;;9.94;77.53;92396.75;5112692;28;20203;-72
2023/04/21 03:31:13;;;;;;;14.73;13.47;;;;;;;9.93;77.30;92397.78;5114996;28;20223;-75
2023/04/21 03:33:39;;;;;;;14.00;12.83;;;;;;;9.97;77.81;92400.63;5114641;28;20245;-75
2023/04/21 03:36:05;;;;;;;15.40;13.90;;;;;;;9.91;76.45;92401.75;5098211;28;20285;-75
2023/04/21 03:38:30;;;;;;;14.50;13.43;;;;;;;9.96;76.46;92405.06;5091418;28;20341;-76
2023/04/21 03:40:56;;;;;;;14.33;13.30;;;;;;;10.00;76.61;92415.72;5091493;28;20228;-75
2023/04/21 03:43:21;;;;;;;17.33;15.20;;;;;;;10.02;76.85;92419.63;5087731;28;20193;-69
2023/04/21 03:45:46;;;;;;;14.90;13.70;;;;;;;10.06;77.05;92415.38;5096493;28;20229;-68
2023/04/21 03:48:12;;;;;;;16.60;15.10;;;;;;;9.94;76.92;92417.63;5101382;28;20252;-68
2023/04/21 03:50:37;;;;;;;14.10;13.03;;;;;;;9.92;76.54;92414.50;5093848;28;20233;-68
2023/04/21 03:53:03;;;;;;;14.63;13.30;;;;;;;9.87;76.82;92414.56;5089570;28;20186;-68
2023/04/21 03:55:28;;;;;;;16.03;14.63;;;;;;;9.87;76.14;92417.16;5089563;28;20295;-69
2023/04/21 03:57:54;;;;;;;14.30;12.87;;;;;;;9.83;76.05;92426.59;5088534;28;20192;-70
2023/04/21 04:00:20;;;;;;;14.53;13.53;;;;;;;9.78;76.70;92418.84;5088211;28;20244;-68
2023/04/21 04:02:45;;;;;;;14.90;13.60;;;;;;;9.96;76.77;92425.91;5091708;28;20225;-70
2023/04/21 04:05:11;;;;;;;14.40;12.97;;;;;;;9.80;77.11;92408.91;5088591;28;20251;-71
2023/04/21 04:07:36;;;;;;;14.33;13.17;;;;;;;10.02;76.26;92430.03;5089161;28;20200;-70
2023/04/21 04:10:03;;;;;;;15.37;14.03;;;;;;;10.10;76.50;92429.44;5089302;28;20231;-69
2023/04/21 04:12:28;;;;;;;15.67;14.27;;;;;;;10.05;76.23;92439.13;5089410;28;20177;-68
2023/04/21 04:14:54;;;;;;;15.80;14.33;;;;;;;10.10;76.21;92432.03;5089666;28;20236;-71
2023/04/21 04:17:19;;;;;;;14.27;13.07;;;;;;;10.16;76.24;92430.94;5089744;28;20188;-71
2023/04/21 04:19:44;;;;;;;15.73;14.53;;;;;;;10.23;76.24;92447.03;5087482;28;20227;-70
2023/04/21 04:22:10;;;;;;;17.17;14.93;;;;;;;10.29;76.27;92442.53;5090102;28;20248;-68
2023/04/21 04:24:35;;;;;;;16.40;14.90;;;;;;;10.41;75.96;92443.66;5089199;28;20197;-71
2023/04/21 04:27:02;;;;;;;16.27;15.07;;;;;;;11.55;75.38;92446.66;5089357;28;20280;-70
2023/04/21 04:29:27;;;;;;;14.57;13.43;;;;;;;11.03;73.96;92451.16;5088820;28;20201;-70
2023/04/21 04:31:53;;;;;;;15.40;13.90;;;;;;;10.84;74.77;92460.03;5089319;28;20185;-70
2023/04/21 04:34:18;;;;;;;15.30;13.90;;;;;;;10.48;75.68;92448.53;5089071;28;20181;-70
2023/04/21 04:36:45;;;;;;;17.13;15.63;;;;;;;10.45;75.62;92454.31;5087866;28;20248;-71
2023/04/21 04:39:11;;;;;;;24.87;17.23;;;;;;;11.69;84.33;92456.06;5090001;28;20324;-74
2023/04/21 04:41:37;;;;;;;16.23;14.10;;;;;;;10.83;74.68;92448.81;5089755;28;20246;-74
2023/04/21 04:44:03;;;;;;;16.27;14.97;;;;;;;10.77;74.86;92455.16;5090756;28;20176;-74
2023/04/21 04:46:29;;;;;;;13.93;12.63;;;;;;;10.84;75.69;92471.28;5089517;28;20240;-74
2023/04/21 04:48:54;;;;;;;15.73;14.33;;;;;;;10.49;76.11;92447.50;5090305;28;20210;-74
2023/04/21 04:51:20;;;;;;;16.00;14.33;;;;;;;10.64;75.71;92458.50;5089836;28;20729;-74
2023/04/21 04:53:45;;;;;;;14.10;12.60;;;;;;;10.82;75.13;92447.28;5088269;28;20186;-74
2023/04/21 04:56:11;;;;;;;16.37;14.77;;;;;;;10.92;75.26;92467.25;5091320;28;20241;-75
2023/04/21 04:58:36;;;;;;;15.00;13.80;;;;;;;10.60;75.64;92459.34;5090038;28;20182;-74
2023/04/21 05:01:15;;;;;;;14.83;13.27;;;;;;;10.75;76.02;92449.47;5089764;28;20268;-74
2023/04/21 05:03:41;;;;;;;15.57;14.17;;;;;;;10.91;76.15;92469.06;5090004;28;20196;-73
2023/04/21 05:06:06;;;;;;;14.67;13.37;;;;;;;10.97;75.21;92467.94;5089423;28;20221;-74
2023/04/21 05:08:32;;;;;;;15.33;14.13;;;;;;;10.89;75.10;92465.97;5089540;28;20193;-74
2023/04/21 05:10:57;;;;;;;14.10;13.00;;;;;;;10.97;74.69;92475.75;5090198;28;20216;-74
2023/04/21 05:13:23;;;;;;;14.37;13.17;;;;;;;10.85;75.35;92478.03;5091387;28;20189;-73
2023/04/21 05:15:48;;;;;;;14.90;13.70;;;;;;;10.81;75.45;92471.84;5090126;28;20222;-74
2023/04/21 05:18:13;;;;;;;14.80;13.50;;;;;;;10.69;76.51;92481.91;5091003;28;20216;-73
2023/04/21 05:20:42;;;;;;;16.43;15.00;;;;;;;10.86;75.99;92476.22;5089476;28;20216;-73
2023/04/21 05:23:07;;;;;;;15.03;13.33;;;;;;;10.70;76.49;92457.38;5089823;28;20237;-74
2023/04/21 05:25:33;;;;;;;16.17;14.57;;;;;;;11.00;75.57;92477.06;5089075;28;20225;-74
2023/04/21 05:27:58;;;;;;;16.10;14.60;;;;;;;11.24;75.27;92478.50;5090741;28;20249;-73
2023/04/21 05:30:24;;;;;;;15.20;13.87;;;;;;;11.36;74.90;92478.81;5089475;28;20232;-74
2023/04/21 05:32:49;;;;;;;14.93;13.63;;;;;;;11.02;76.45;92478.31;5088898;28;20184;-73
2023/04/21 05:35:15;;;;;;;14.97;13.77;;;;;;;11.14;74.66;92460.34;5090213;28;20231;-73
2023/04/21 05:37:40;;;;;;;15.00;13.63;;;;;;;11.46;73.96;92474.47;5090101;28;20197;-73
2023/04/21 05:40:06;;;;;;;14.77;13.57;;;;;;;11.76;73.60;92472.19;5089118;28;20236;-74
2023/04/21 05:42:31;;;;;;;15.03;13.63;;;;;;;11.60;72.95;92480.53;5091883;28;20569;-73
2023/04/21 05:44:57;;;;;;;14.60;13.40;;;;;;;11.55;72.67;92449.25;5090923;28;20220;-74
2023/04/21 05:47:22;;;;;;;18.17;12.97;;;;;;;11.67;72.24;92478.34;5090547;28;20234;-74
2023/04/21 05:49:52;;;;;;;16.87;14.40;;;;;;;11.75;72.45;92488.16;5089579;28;20219;-73
2023/04/21 05:52:17;;;;;;;15.67;14.23;;;;;;;11.42;73.62;92468.28;5088524;28;20181;-74
2023/04/21 05:54:43;;;;;;;15.97;14.67;;;;;;;12.04;72.52;92480.81;5088893;28;20868;-69
2023/04/21 05:57:08;;;;;;;15.43;13.93;;;;;;;11.91;73.39;92486.81;5089111;28;20195;-68
2023/04/21 05:59:34;;;;;;;16.03;14.57;;;;;;;12.68;70.17;92463.03;5088914;28;20187;-69
2023/04/21 06:01:59;;;;;;;15.07;13.87;;;;;;;12.10;70.51;92474.44;5089021;28;20236;-70
2023/04/21 06:04:25;;;;;;;15.77;14.33;;;;;;;12.98;69.97;92480.72;5088529;28;20184;-73
2023/04/21 06:06:50;;;;;;;14.57;13.47;;;;;;;16.06;60.61;92485.84;5088799;28;20208;-71
2023/04/21 06:09:15;;;;;;;15.43;13.83;;;;;;;16.56;57.22;92491.28;5088497;28;20197;-69
2023/04/21 06:11:41;;;;;;;15.33;14.07;;;;;;;15.15;61.71;92486.41;5089549;28;20243;-69
2023/04/21 06:14:06;;;;;;;14.40;13.10;;;;;;;13.30;67.62;92479.00;5089728;28;20219;-70
2023/04/21 06:16:33;;;;;;;14.97;13.57;;;;;;;13.02;68.70;92477.53;5090072;28;20288;-69
2023/04/21 06:18:59;;;;;;;18.70;14.03;;;;;;;13.08;69.05;92474.53;5087911;28;20193;-70
2023/04/21 06:21:24;;;;;;;15.27;13.97;;;;;;;12.76;71.21;92477.31;5089293;28;20216;-72
2023/04/21 06:23:50;;;;;;;15.80;14.10;;;;;;;12.65;69.22;92474.09;5088899;28;20185;-69
2023/04/21 06:26:16;;;;;;;14.67;13.37;;;;;;;12.61;71.09;92491.47;5089314;28;20247;-67
2023/04/21 06:28:41;;;;;;;16.43;14.83;;;;;;;12.31;70.98;92478.22;5089871;28;20191;-68
2023/04/21 06:31:08;;;;;;;15.53;14.33;;;;;;;12.29;71.46;92475.13;5088544;28;20224;-69
2023/04/21 06:33:34;;;;;;;14.97;13.73;;;;;;;12.18;71.57;92477.16;5088913;28;20199;-70
2023/04/21 06:35:59;;;;;;;15.53;14.03;;;;;;;12.51;70.95;92480.44;5087115;28;20232;-70
2023/04/21 06:38:25;;;;;;;15.17;13.57;;;;;;;12.61;69.53;92474.97;5087043;28;20193;-69
2023/04/21 06:40:50;;;;;;;15.40;13.97;;;;;;;12.57;69.08;92453.88;5087714;28;20228;-69
2023/04/21 06:43:16;;;;;;;16.37;14.87;;;;;;;12.66;68.85;92469.66;5092369;28;20195;-69
2023/04/21 06:45:41;;;;;;;15.37;14.13;;;;;;;12.63;70.17;92468.41;5092405;28;20226;-69
2023/04/21 06:48:06;;;;;;;16.20;14.73;;;;;;;12.55;69.77;92457.81;5089993;28;20202;-69
2023/04/21 06:50:32;;;;;;;14.90;13.67;;;;;;;12.69;68.60;92471.66;5087972;28;20220;-69
2023/04/21 06:52:57;;;;;;;13.70;12.70;;;;;;;12.94;68.27;92452.78;5089345;28;20196;-68
2023/04/21 06:55:23;;;;;;;13.80;12.67;;;;;;;13.28;68.03;92460.94;5091045;28;20672;-68
2023/04/21 06:57:48;;;;;;;14.53;13.20;;;;;;;13.08;68.28;92463.25;5090603;28;20192;-68
2023/04/21 07:00:14;;;;;;;15.17;13.67;;;;;;;13.42;67.19;92443.31;5091454;28;20232;-68
2023/04/21 07:02:40;;;;;;;16.07;14.67;;;;;;;13.52;66.97;92456.19;5090789;28;20231;-72
2023/04/21 07:05:06;;;;;;;13.83;12.67;;;;;;;13.14;66.69;92454.97;5091213;28;20351;-70
2023/04/21 07:07:31;;;;;;;13.57;12.37;;;;;;;12.91;67.92;92458.63;5091952;28;20663;-70
2023/04/21 07:09:57;;;;;;;14.47;13.33;;;;;;;13.46;67.72;92460.00;5090237;28;20224;-68
2023/04/21 07:12:22;;;;;;;13.90;12.60;;;;;;;13.42;67.18;92461.66;5091310;28;20185;-69
2023/04/21 07:14:47;;;;;;;14.60;13.40;;;;;;;13.32;67.52;92454.06;5091648;28;20239;-69
2023/04/21 07:17:13;;;;;;;15.03;13.17;;;;;;;13.59;67.08;92453.91;5091563;28;20197;-70
2023/04/21 07:19:38;;;;;;;14.50;13.10;;;;;;;13.75;66.42;92468.19;5090601;28;20173;-69
2023/04/21 07:22:04;;;;;;;14.83;13.53;;;;;;;13.68;65.89;92473.06;5091053;28;20188;-68
2023/04/21 07:24:30;;;;;;;14.07;12.97;;;;;;;13.65;65.56;92473.69;5089641;28;20260;-68
2023/04/21 07:26:56;;;;;;;14.07;12.77;;;;;;;13.79;65.99;92471.75;5089767;28;20208;-69
2023/04/21 07:29:21;;;;;;;14.17;13.03;;;;;;;14.00;65.92;92462.31;5092603;28;20193;-69
2023/04/21 07:31:47;;;;;;;13.13;11.93;;;;;;;13.87;65.42;92463.16;5090410;28;20209;-69
2023/04/21 07:34:13;;;;;;;14.73;13.40;;;;;;;13.93;65.31;92471.69;5091058;28;20204;-69
2023/04/21 07:36:38;;;;;;;15.50;14.20;;;;;;;14.18;66.67;92461.28;5089422;28;20252;-70
2023/04/21 07:39:04;;;;;;;15.43;14.03;;;;;;;14.38;63.51;92468.63;5091683;28;20193;-69
2023/04/21 07:41:29;;;;;;;13.60;12.40;;;;;;;14.40;63.32;92468.34;5088737;28;20224;-69
2023/04/21 07:43:55;;;;;;;14.30;13.20;;;;;;;13.79;63.26;92463.88;5090239;28;20196;-69
2023/04/21 07:46:21;;;;;;;14.23;13.13;;;;;;;13.65;64.30;92465.06;5088709;28;20240;-70
2023/04/21 07:48:47;;;;;;;14.23;13.23;;;;;;;14.09;63.43;92467.56;5092228;28;20197;-70
2023/04/21 07:51:14;;;;;;;13.63;12.70;;;;;;;13.71;63.78;92469.84;5106286;28;20224;-69
2023/04/21 07:53:40;;;;;;;14.70;13.53;;;;;;;13.75;64.70;92473.44;5108988;28;20183;-69
2023/04/21 07:56:06;;;;;;;14.30;13.10;;;;;;;13.74;64.38;92445.63;5110491;27;20228;-71
2023/04/21 07:58:31;;;;;;;13.90;12.63;;;;;;;14.44;60.95;92475.28;5110331;28;20188;-71
2023/04/21 08:00:57;;;;;;;13.07;12.07;;;;;;;14.49;60.60;92485.66;5109486;27;20224;-70
2023/04/21 08:03:22;;;;;;;13.73;12.67;;;;;;;14.27;60.45;92477.09;5111216;28;20227;-71
2023/04/21 08:05:47;;;;;;;13.23;12.30;;;;;;;14.79;61.12;92486.66;5111128;28;20227;-70
2023/04/21 08:08:18;;;;;;;13.07;12.27;;;;;;;14.20;61.24;92493.28;5109778;28;20206;-69
2023/04/21 08:10:44;;;;;;;14.80;13.40;;;;;;;15.11;58.88;92475.75;5110530;28;20220;-70
2023/04/21 08:13:10;;;;;;;13.20;12.30;;;;;;;14.93;58.66;92478.66;5125993;28;20199;-71
2023/04/21 08:15:35;;;;;;;13.63;12.63;;;;;;;15.95;57.92;92486.53;5112703;27;20240;-71
2023/04/21 08:18:00;;;;;;;13.07;11.97;;;;;;;15.99;56.61;92480.31;5110426;28;20188;-71
2023/04/21 08:20:26;;;;;;;14.13;12.83;;;;;;;15.07;60.24;92474.81;5111320;28;20224;-71
2023/04/21 08:22:51;;;;;;;13.10;12.20;;;;;;;14.93;57.92;92473.38;5111943;28;20184;-69
2023/04/21 08:25:17;;;;;;;12.70;11.60;;;;;;;14.80;59.15;92471.69;5109017;28;20247;-69
2023/04/21 08:27:42;;;;;;;12.47;11.70;;;;;;;14.70;59.37;92466.72;5111390;28;20191;-68
2023/04/21 08:30:09;;;;;;;12.67;11.67;;;;;;;14.93;60.40;92478.66;5104072;27;20228;-69
2023/04/21 08:32:34;;;;;;;13.30;12.17;;;;;;;14.92;61.33;92466.59;5089361;28;20208;-68
2023/04/21 08:35:00;;;;;;;12.37;11.47;;;;;;;14.95;61.76;92456.25;5088714;28;20303;-69
2023/04/21 08:37:26;;;;;;;12.73;11.53;;;;;;;15.28;61.62;92469.72;5087493;28;20192;-68
2023/04/21 08:39:52;;;;;;;13.80;12.60;;;;;;;15.67;60.75;92470.31;5088259;28;20262;-67
2023/04/21 08:42:18;;;;;;;13.97;12.60;;;;;;;16.02;58.61;92469.16;5088742;28;20189;-69
2023/04/21 08:44:44;;;;;;;12.87;11.67;;;;;;;15.98;58.54;92472.72;5090777;28;20246;-70
2023/04/21 08:47:10;;;;;;;11.73;10.83;;;;;;;15.93;56.63;92436.03;5111183;28;20306;-68
2023/04/21 08:49:38;;;;;;;13.30;12.33;;;;;;;15.47;59.65;92467.56;5109390;27;20192;-68
2023/04/21 08:52:04;;;;;;;13.17;12.07;;;;;;;15.48;59.34;92475.16;5111083;28;20209;-67
2023/04/21 08:54:29;;;;;;;13.37;12.37;;;;;;;15.21;57.79;92461.50;5108879;28;20235;-69
2023/04/21 08:56:55;;;;;;;13.97;12.50;;;;;;;14.86;58.96;92462.56;5110338;28;20271;-68
2023/04/21 08:59:21;;;;;;;14.17;13.07;;;;;;;14.94;60.22;92467.06;5109152;28;20196;-69
2023/04/21 09:02:06;;;;;;;12.43;11.23;;;;;;;14.96;59.62;92457.03;5109408;28;20216;-69
2023/04/21 09:04:31;;;;;;;14.13;12.73;;;;;;;14.98;60.16;92458.25;5108811;28;20203;-68
2023/04/21 09:06:57;;;;;;;11.73;10.93;;;;;;;14.56;60.25;92450.28;5109771;28;20223;-68
2023/04/21 09:09:22;;;;;;;13.53;12.37;;;;;;;14.56;61.38;92458.19;5109910;28;20246;-69
2023/04/21 09:11:58;;;;;;;11.63;10.83;;;;;;;14.67;60.08;92441.81;5109408;28;20192;-69
2023/04/21 09:14:33;;;;;;;11.43;10.40;;;;;;;14.95;60.06;92458.09;5110987;28;20261;-69
2023/04/21 09:17:03;;;;;;;12.57;11.57;;;;;;;14.75;60.80;92448.16;5088560;28;20192;-68
2023/04/21 09:19:32;;;;;;;12.53;11.57;;;;;;;15.15;59.16;92446.97;5090586;28;20263;-70
2023/04/21 09:21:59;;;;;;;11.53;10.33;;;;;;;15.41;57.69;92445.13;5109542;28;20185;-69
2023/04/21 09:24:25;;;;;;;12.30;11.20;;;;;;;15.69;57.18;92446.31;5107783;28;20188;-67
2023/04/21 09:26:51;;;;;;;14.00;10.13;;;;;;;15.64;54.79;92435.97;5109196;28;20264;-69
2023/04/21 09:29:16;;;;;;;10.27;9.57;;;;;;;15.49;56.13;92446.97;5109723;28;20191;-68
2023/04/21 09:31:43;;;;;;;11.33;10.37;;;;;;;15.71;55.45;92444.13;5108205;28;20267;-68
2023/04/21 09:34:23;;;;;;;11.63;10.83;;;;;;;15.71;55.60;92434.41;5108356;28;20172;-68
2023/04/21 09:37:02;;;;;;;11.10;10.30;;;;;;;15.87;54.41;92411.75;5086911;28;20307;-67
2023/04/21 09:39:32;;;;;;;12.30;11.40;;;;;;;16.30;54.14;92440.53;5090278;28;20188;-69
2023/04/21 09:41:58;;;;;;;11.90;11.07;;;;;;;16.39;52.61;92438.63;5088598;28;20188;-68
2023/04/21 09:44:27;;;;;;;11.87;10.67;;;;;;;16.40;52.68;92437.56;5088636;28;20264;-69
2023/04/21 09:47:01;;;;;;;10.57;9.87;;;;;;;16.48;49.04;92426.22;5087801;28;20205;-69
2023/04/21 09:49:29;;;;;;;10.57;9.97;;;;;;;16.44;53.13;92430.56;5087018;28;20193;-69
2023/04/21 09:51:56;;;;;;;12.20;11.30;;;;;;;17.17;50.67;92431.78;5087315;28;20184;-70
2023/04/21 09:54:29;;;;;;;11.73;10.73;;;;;;;16.79;51.61;92426.66;5086972;28;20207;-73
2023/04/21 09:56:58;;;;;;;11.60;10.50;;;;;;;16.39;50.17;92414.16;5088733;28;20189;-71
2023/04/21 09:59:44;;;;;;;11.10;10.30;;;;;;;16.60;51.43;92423.69;5087934;28;20193;-68
2023/04/21 10:02:10;;;;;;;12.10;11.20;;;;;;;17.05;51.30;92413.28;5086011;28;20236;-68
2023/04/21 10:04:38;;;;;;;12.20;11.40;;;;;;;17.34;50.99;92406.06;5088855;28;20199;-69
2023/04/21 10:07:05;;;;;;;12.07;11.17;;;;;;;16.52;51.93;92427.13;5087179;28;20243;-68
2023/04/21 10:09:39;;;;;;;12.47;11.50;;;;;;;16.49;53.82;92417.22;5087848;28;20189;-70
2023/04/21 10:12:07;;;;;;;12.33;11.13;;;;;;;17.01;51.97;92407.13;5088428;28;20193;-70
2023/04/21 10:14:32;;;;;;;11.93;11.07;;;;;;;16.86;52.48;92415.59;5087233;28;20211;-69
2023/04/21 10:17:04;;;;;;;12.17;11.17;;;;;;;17.14;49.97;92413.97;5087783;28;20256;-69
2023/04/21 10:19:34;;;;;;;11.27;10.57;;;;;;;16.39;48.47;92414.91;5088096;28;20223;-68
2023/04/21 10:22:00;;;;;;;11.30;10.50;;;;;;;16.90;49.35;92396.16;5087681;28;20185;-69
2023/04/21 10:24:29;;;;;;;12.23;11.00;;;;;;;17.25;48.09;92407.22;5089170;28;20215;-69
2023/04/21 10:27:00;;;;;;;10.80;9.80;;;;;;;17.67;44.53;92403.44;5086447;28;20236;-70
2023/04/21 10:29:32;;;;;;;10.10;9.40;;;;;;;17.77;46.11;92402.25;5087612;28;20252;-69
2023/04/21 10:31:57;;;;;;;11.30;10.23;;;;;;;17.47;46.47;92394.47;5086880;28;20226;-70
2023/04/21 10:34:25;;;;;;;12.30;11.10;;;;;;;16.75;49.41;92396.75;5086822;28;20199;-71
2023/04/21 10:36:53;;;;;;;11.50;10.80;;;;;;;16.92;51.18;92398.47;5085688;28;20192;-71
2023/04/21 10:40:08;;;;;;;12.73;11.53;;;;;;;16.10;54.29;92362.22;5088395;28;20235;-69
2023/04/21 10:42:35;;;;;;;11.77;10.87;;;;;;;16.34;54.97;92386.13;5110158;28;20263;-69
2023/04/21 10:45:08;;;;;;;11.83;10.97;;;;;;;15.71;57.48;92402.81;5109552;28;20211;-70
2023/04/21 10:47:47;;;;;;;12.73;11.83;;;;;;;15.26;55.91;92404.25;5109370;28;20818;-72
2023/04/21 10:50:16;;;;;;;11.40;10.70;;;;;;;15.65;55.92;92408.56;5108771;28;20228;-69
2023/04/21 10:52:46;;;;;;;11.90;11.10;;;;;;;15.50;54.71;92388.00;5109868;28;20183;-70
2023/04/21 10:55:14;;;;;;;9.47;8.87;;;;;;;15.40;53.57;92415.41;5108639;28;20224;-70
2023/04/21 10:57:43;;;;;;;10.73;10.03;;;;;;;15.65;53.44;92398.03;5111722;28;20217;-70
2023/04/21 11:00:10;;;;;;;11.90;10.97;;;;;;;15.95;53.97;92415.44;5107130;28;20220;-70
2023/04/21 11:02:36;;;;;;;11.30;10.50;;;;;;;16.04;54.69;92414.31;5108206;28;20275;-71
2023/04/21 11:05:01;;;;;;;11.77;10.63;;;;;;;15.68;54.99;92407.91;5108521;28;20235;-70
2023/04/21 11:07:26;;;;;;;11.83;10.93;;;;;;;15.51;55.41;92413.22;5108294;28;20221;-70
2023/04/21 11:09:56;;;;;;;10.87;10.07;;;;;;;15.43;55.30;92406.13;5109589;28;20250;-69
2023/04/21 11:12:25;;;;;;;11.83;11.00;;;;;;;15.78;55.44;92404.97;5111336;28;20252;-69
2023/04/21 11:14:51;;;;;;;10.70;10.00;;;;;;;15.95;54.99;92413.56;5110464;28;20342;-69
2023/04/21 11:17:20;;;;;;;11.93;10.93;;;;;;;16.31;53.78;92410.44;5108835;28;20216;-69